Time;durP1;ratioP1;P1;durP2;ratioP2;P2;SDS_P1;SDS_P2;PMS_P1;PMS_P2;Temp;Humidity;BMP_temperature;BMP_pressure;BME280_temperature;BME280_humidity;BME280_pressure;Samples;Min_cycle;Max_cycle;Signal;HPM_P1;HPM_P2
2022/01/22 00:00:56;;;;;;;10.00;2.33;;;-0.10;99.90;;;;;;4903137;28;20217;-66
2022/01/22 00:03:23;;;;;;;4.45;1.45;;;-0.10;99.90;;;;;;4914854;28;22425;-80
2022/01/22 00:05:50;;;;;;;8.45;2.70;;;-0.10;99.90;;;;;;4912771;28;20864;-81
2022/01/22 00:08:17;;;;;;;13.25;3.08;;;0.00;99.90;;;;;;4918389;28;20058;-69
2022/01/22 00:10:45;;;;;;;9.77;1.77;;;-0.10;99.90;;;;;;4913164;28;20136;-64
2022/01/22 00:15:46;;;;;;;6.35;2.88;;;-0.10;99.90;;;;;;4915826;28;20152;-82
2022/01/22 00:18:13;;;;;;;3.65;1.80;;;-0.10;99.90;;;;;;4916357;28;20066;-71
2022/01/22 00:20:41;;;;;;;4.60;2.53;;;-0.10;99.90;;;;;;4910093;28;20061;-65
2022/01/22 00:23:08;;;;;;;5.55;2.05;;;-0.10;99.90;;;;;;4941246;28;20049;-78
2022/01/22 00:25:36;;;;;;;8.10;2.53;;;-0.10;99.90;;;;;;4957638;28;20141;-82
2022/01/22 00:28:04;;;;;;;4.85;2.17;;;-0.10;99.90;;;;;;4956587;28;20468;-79
2022/01/22 00:30:31;;;;;;;4.60;2.35;;;-0.10;99.90;;;;;;4955316;28;20091;-75
2022/01/22 00:32:58;;;;;;;4.80;2.33;;;-0.10;99.90;;;;;;4955509;28;20042;-64
2022/01/22 00:35:25;;;;;;;5.28;1.60;;;-0.10;99.90;;;;;;4951574;28;20125;-67
2022/01/22 00:37:53;;;;;;;4.63;2.03;;;-0.10;99.90;;;;;;4952379;28;20058;-66
2022/01/22 00:40:21;;;;;;;3.28;0.80;;;-0.10;99.90;;;;;;4951030;28;20366;-80
2022/01/22 00:42:49;;;;;;;8.57;2.03;;;-0.20;99.90;;;;;;4949059;28;20667;-74
2022/01/22 00:45:18;;;;;;;8.77;2.65;;;-0.20;99.90;;;;;;4952493;28;20065;-64
2022/01/22 00:47:47;;;;;;;7.43;2.30;;;-0.20;99.90;;;;;;4954546;28;20130;-67
2022/01/22 00:50:17;;;;;;;3.80;2.15;;;-0.20;99.90;;;;;;4952869;28;20074;-82
2022/01/22 00:52:45;;;;;;;4.10;1.63;;;-0.20;99.90;;;;;;4867601;28;20215;-64
2022/01/22 00:55:15;;;;;;;6.35;1.75;;;-0.20;99.90;;;;;;366331;28;10023423;-69
2022/01/22 00:57:42;;;;;;;6.35;1.60;;;-0.10;99.90;;;;;;4939636;28;20296;-66
2022/01/22 01:00:12;;;;;;;5.90;2.20;;;-0.10;99.90;;;;;;4950387;28;20051;-70
2022/01/22 01:02:40;;;;;;;10.43;4.25;;;-0.20;99.90;;;;;;4950437;28;20054;-65
2022/01/22 01:05:09;;;;;;;7.38;1.90;;;-0.10;99.90;;;;;;4944210;28;20451;-78
2022/01/22 01:07:37;;;;;;;8.20;1.90;;;-0.10;99.90;;;;;;4947951;28;20054;-67
2022/01/22 01:10:06;;;;;;;7.47;1.77;;;-0.20;99.90;;;;;;4952028;28;20057;-80
2022/01/22 01:12:35;;;;;;;4.25;1.60;;;-0.20;99.90;;;;;;4946628;28;20450;-70
2022/01/22 01:34:40;;;;;;;10.45;1.60;;;-0.30;99.90;;;;;;4945563;28;20553;-64
2022/01/22 01:37:08;;;;;;;3.08;1.85;;;-0.20;99.90;;;;;;4953014;28;20046;-65
2022/01/22 01:39:37;;;;;;;7.45;1.58;;;-0.30;99.90;;;;;;4936532;28;20065;-64
2022/01/22 01:42:12;;;;;;;4.93;1.47;;;-0.20;99.90;;;;;;4953838;28;20073;-65
2022/01/22 01:44:40;;;;;;;4.57;1.75;;;-0.30;99.90;;;;;;4945416;28;20473;-71
2022/01/22 01:47:18;;;;;;;3.60;1.73;;;-0.30;99.90;;;;;;4953775;28;20437;-64
2022/01/22 01:49:46;;;;;;;9.02;1.85;;;-0.20;99.90;;;;;;4954416;28;20058;-68
2022/01/22 01:52:34;;;;;;;7.50;2.00;;;-0.20;99.90;;;;;;4928125;28;20173;-64
2022/01/22 01:55:10;;;;;;;10.13;1.55;;;-0.20;99.90;;;;;;4914475;28;20235;-64
2022/01/22 01:57:40;;;;;;;6.70;1.85;;;-0.20;99.90;;;;;;4906901;28;22576;-77
2022/01/22 02:00:13;;;;;;;12.52;2.20;;;-0.20;99.90;;;;;;4900124;28;20066;-64
2022/01/22 02:02:44;;;;;;;6.55;1.60;;;-0.20;99.90;;;;;;4910324;28;20148;-69
2022/01/22 02:05:16;;;;;;;5.78;2.78;;;-0.20;99.90;;;;;;4913584;28;20208;-73
2022/01/22 02:07:45;;;;;;;4.43;2.15;;;-0.20;99.90;;;;;;4906771;28;20091;-66
2022/01/22 02:10:23;;;;;;;4.38;1.67;;;-0.20;99.90;;;;;;4915788;28;20068;-72
2022/01/22 02:23:53;;;;;;;6.65;3.30;;;-0.20;99.90;;;;;;4949580;28;20137;-64
2022/01/22 02:26:20;;;;;;;3.90;1.80;;;-0.20;99.90;;;;;;4951617;28;20073;-73
2022/01/22 02:28:50;;;;;;;5.50;2.05;;;-0.20;99.90;;;;;;4938904;28;21341;-62
2022/01/22 02:31:41;;;;;;;7.03;2.65;;;-0.20;99.90;;;;;;4957237;28;20140;-66
2022/01/22 02:36:42;;;;;;;4.50;1.70;;;-0.20;99.90;;;;;;4930711;28;20132;-65
2022/01/22 02:41:41;;;;;;;1.88;1.40;;;-0.20;99.90;;;;;;4946486;28;20148;-63
2022/01/22 02:44:24;;;;;;;2.75;1.75;;;-0.20;99.90;;;;;;4940632;28;20039;-65
2022/01/22 02:46:52;;;;;;;7.75;1.73;;;-0.20;99.90;;;;;;4939492;28;20057;-76
2022/01/22 02:49:19;;;;;;;4.30;1.85;;;-0.20;99.90;;;;;;4940793;28;20059;-70
2022/01/22 02:51:45;;;;;;;4.25;2.08;;;-0.20;99.90;;;;;;4896241;28;20677;-64
2022/01/22 02:54:27;;;;;;;5.40;2.73;;;-0.20;99.90;;;;;;3124454;28;10003219;-64
2022/01/22 02:56:54;;;;;;;15.52;6.07;;;-0.20;99.90;;;;;;3228638;28;10001886;-64
2022/01/22 02:59:23;;;;;;;6.32;1.80;;;-0.20;99.90;;;;;;4946850;28;20108;-69
2022/01/22 03:01:52;;;;;;;4.90;2.03;;;-0.20;99.90;;;;;;4939622;28;20206;-65
2022/01/22 03:04:21;;;;;;;6.72;2.65;;;-0.20;99.90;;;;;;4944139;28;22284;-63
2022/01/22 03:06:49;;;;;;;11.55;2.17;;;-0.20;99.90;;;;;;4938789;28;20058;-63
2022/01/22 03:09:18;;;;;;;3.97;1.30;;;-0.20;99.90;;;;;;4943064;28;20042;-72
2022/01/22 03:12:02;;;;;;;18.33;2.90;;;-0.20;99.90;;;;;;4957358;28;20049;-73
2022/01/22 03:28:02;;;;;;;8.80;1.73;;;-0.30;99.90;;;;;;4953191;28;20062;-78
2022/01/22 03:30:30;;;;;;;6.50;1.85;;;-0.30;99.90;;;;;;4943069;28;20465;-64
2022/01/22 03:32:57;;;;;;;3.50;2.13;;;-0.30;99.90;;;;;;4943355;28;20054;-71
2022/01/22 03:35:28;;;;;;;9.85;1.90;;;-0.30;99.90;;;;;;4943721;28;20050;-65
2022/01/22 03:37:58;;;;;;;8.57;2.35;;;-0.30;99.90;;;;;;4945014;28;20064;-81
2022/01/22 03:40:30;;;;;;;;;;;-0.20;99.90;;;;;;4947575;28;20034;-75
2022/01/22 03:42:58;;;;;;;3.42;3.08;;;-0.20;99.90;;;;;;4930490;28;19968;-79
2022/01/22 03:45:26;;;;;;;6.20;1.73;;;-0.20;99.90;;;;;;4947764;28;20061;-68
2022/01/22 03:47:55;;;;;;;5.30;2.53;;;-0.20;99.90;;;;;;4944938;28;20058;-74
2022/01/22 03:50:22;;;;;;;9.05;2.85;;;-0.20;99.90;;;;;;4943384;28;20077;-66
2022/01/22 03:52:50;;;;;;;8.35;3.20;;;-0.20;99.90;;;;;;4951220;28;20055;-70
2022/01/22 03:55:35;;;;;;;4.28;1.48;;;-0.20;99.90;;;;;;4932200;28;20050;-68
2022/01/22 03:58:24;;;;;;;7.43;2.55;;;-0.20;99.90;;;;;;4940330;28;20091;-74
2022/01/22 04:04:07;;;;;;;3.63;1.50;;;-0.20;99.90;;;;;;4937650;28;20207;-67
2022/01/22 04:09:08;;;;;;;5.07;2.03;;;-0.20;99.90;;;;;;4932414;28;20085;-75
2022/01/22 04:11:40;;;;;;;10.18;4.13;;;-0.20;99.90;;;;;;4931401;28;20046;-65
2022/01/22 04:14:15;;;;;;;4.65;1.70;;;-0.20;99.90;;;;;;4930189;28;20054;-64
2022/01/22 04:16:57;;;;;;;4.20;2.28;;;-0.20;99.90;;;;;;4958589;28;20421;-66
2022/01/22 04:25:01;;;;;;;7.68;1.60;;;-0.10;99.90;;;;;;4944175;28;20058;-65
2022/01/22 04:27:28;;;;;;;5.47;1.70;;;-0.10;99.90;;;;;;4943906;28;20061;-80
2022/01/22 04:29:58;;;;;;;11.25;2.03;;;0.00;99.90;;;;;;4936289;28;20132;-77
2022/01/22 04:32:26;;;;;;;14.68;3.22;;;0.00;99.90;;;;;;4945449;28;20058;-65
2022/01/22 04:34:54;;;;;;;3.67;1.30;;;0.00;99.90;;;;;;4935679;28;20090;-79
2022/01/22 04:37:24;;;;;;;3.58;2.03;;;0.10;99.90;;;;;;4885610;28;20225;-76
2022/01/22 04:39:52;;;;;;;5.32;1.92;;;0.10;99.90;;;;;;4894735;28;20065;-82
2022/01/22 04:42:20;;;;;;;3.33;2.05;;;0.10;99.90;;;;;;4887417;28;20109;-66
2022/01/22 04:47:32;;;;;;;7.10;2.03;;;0.10;99.90;;;;;;4902064;28;20058;-79
2022/01/22 04:55:31;;;;;;;3.63;2.08;;;0.10;99.90;;;;;;4885822;28;20066;-66
2022/01/22 04:58:15;;;;;;;6.72;1.83;;;0.10;99.90;;;;;;2775781;28;10003993;-69
2022/01/22 05:00:45;;;;;;;9.77;2.08;;;0.10;99.90;;;;;;2853685;28;10001093;-79
2022/01/22 05:03:30;;;;;;;3.13;1.95;;;0.10;99.90;;;;;;4896649;28;20136;-80
2022/01/22 05:06:14;;;;;;;9.77;2.25;;;0.10;99.90;;;;;;4919699;28;20045;-80
2022/01/22 05:09:05;;;;;;;3.92;2.00;;;0.10;99.90;;;;;;4932655;28;20062;-78
2022/01/22 05:11:46;;;;;;;9.23;2.17;;;0.10;99.90;;;;;;4958646;28;20122;-82
2022/01/22 05:14:15;;;;;;;3.40;1.85;;;0.10;99.90;;;;;;4964230;28;22099;-71
2022/01/22 05:16:43;;;;;;;7.15;1.77;;;0.20;99.90;;;;;;4947289;28;20113;-78
2022/01/22 05:19:20;;;;;;;6.65;1.73;;;0.20;99.90;;;;;;4928410;28;20066;-67
2022/01/22 05:21:50;;;;;;;6.28;2.90;;;0.10;99.90;;;;;;4927571;28;20046;-79
2022/01/22 05:24:22;;;;;;;8.60;2.27;;;0.10;99.90;;;;;;4938380;28;20058;-64
2022/01/22 05:32:58;;;;;;;7.18;1.58;;;0.20;99.90;;;;;;4945983;28;22293;-66
2022/01/22 05:38:03;;;;;;;8.32;1.80;;;0.20;99.90;;;;;;4956486;28;20057;-78
2022/01/22 05:40:30;;;;;;;8.13;3.65;;;0.20;99.90;;;;;;4956721;28;20078;-80
2022/01/22 05:42:57;;;;;;;3.45;1.67;;;0.20;99.90;;;;;;4947012;28;20086;-80
2022/01/22 05:45:25;;;;;;;7.78;1.92;;;0.20;99.90;;;;;;4946606;28;22001;-71
2022/01/22 05:47:52;;;;;;;8.85;1.98;;;0.20;99.90;;;;;;4947103;28;20058;-71
2022/01/22 05:50:47;;;;;;;4.63;1.40;;;0.20;99.90;;;;;;4948324;28;20077;-69
2022/01/22 06:01:13;;;;;;;3.15;2.50;;;0.20;99.90;;;;;;4891769;28;20054;-80
2022/01/22 06:04:00;;;;;;;4.53;1.88;;;0.20;99.90;;;;;;4909092;28;20199;-65
2022/01/22 06:06:28;;;;;;;6.55;2.08;;;0.20;99.90;;;;;;4909518;28;21118;-80
2022/01/22 06:08:57;;;;;;;7.63;1.95;;;0.30;99.90;;;;;;4915183;28;20126;-80
2022/01/22 06:11:30;;;;;;;7.20;2.10;;;0.30;99.90;;;;;;4908686;28;20061;-81
2022/01/22 06:13:57;;;;;;;5.53;2.22;;;0.20;99.90;;;;;;4910656;28;20061;-81
2022/01/22 06:16:41;;;;;;;3.92;2.35;;;0.20;99.90;;;;;;4908666;28;20080;-81
2022/01/22 06:19:29;;;;;;;5.47;1.98;;;0.30;99.90;;;;;;4909326;28;20054;-80
2022/01/22 06:21:57;;;;;;;4.15;2.00;;;0.30;99.90;;;;;;4912547;28;20130;-71
2022/01/22 06:24:24;;;;;;;7.05;2.20;;;0.30;99.90;;;;;;4942770;28;20047;-65
2022/01/22 06:26:56;;;;;;;4.63;2.67;;;0.20;99.90;;;;;;4940273;28;20054;-79
2022/01/22 06:29:23;;;;;;;6.22;2.10;;;0.20;99.90;;;;;;4953356;28;20496;-79
2022/01/22 06:31:50;;;;;;;7.35;1.77;;;0.20;99.90;;;;;;4943781;28;20054;-80
2022/01/22 06:34:18;;;;;;;6.32;2.20;;;0.20;99.90;;;;;;4941951;28;20057;-70
2022/01/22 06:36:45;;;;;;;4.35;2.55;;;0.20;99.90;;;;;;4944131;28;20400;-67
2022/01/22 06:39:17;;;;;;;3.85;2.70;;;0.20;99.90;;;;;;4947999;28;20124;-64
2022/01/22 06:42:03;;;;;;;;;;;0.20;99.90;;;;;;4947774;28;20060;-69
2022/01/22 06:44:34;;;;;;;2.30;1.55;;;0.30;99.90;;;;;;4946562;28;20327;-64
2022/01/22 06:47:19;;;;;;;5.15;2.70;;;0.30;99.90;;;;;;4949098;28;20104;-66
2022/01/22 06:49:58;;;;;;;6.30;2.95;;;0.30;99.90;;;;;;4946752;28;20049;-66
2022/01/22 06:52:45;;;;;;;6.90;3.95;;;0.30;99.90;;;;;;4944127;28;20097;-78
2022/01/22 06:55:39;;;;;;;5.47;3.30;;;0.30;99.90;;;;;;4942142;28;20062;-76
2022/01/22 06:58:07;;;;;;;4.40;2.00;;;0.30;99.90;;;;;;4906246;28;1125618;-74
2022/01/22 07:00:36;;;;;;;7.10;2.25;;;0.30;99.90;;;;;;4942280;28;20077;-66
2022/01/22 07:03:15;;;;;;;4.32;1.52;;;0.30;99.90;;;;;;4928840;28;20055;-66
2022/01/22 07:05:46;;;;;;;6.57;1.75;;;0.40;99.90;;;;;;4944878;28;20054;-67
2022/01/22 07:08:21;;;;;;;4.28;2.63;;;0.30;99.90;;;;;;4937100;28;20428;-77
2022/01/22 07:10:53;;;;;;;3.22;2.00;;;0.40;99.90;;;;;;4931142;28;20042;-68
2022/01/22 07:13:20;;;;;;;4.68;2.33;;;0.40;99.90;;;;;;4928485;28;20046;-65
2022/01/22 07:15:49;;;;;;;10.25;2.42;;;0.40;99.90;;;;;;4939748;28;20132;-70
2022/01/22 07:18:20;;;;;;;3.92;2.17;;;0.40;99.90;;;;;;4930659;28;20990;-70
2022/01/22 07:20:49;;;;;;;5.80;1.83;;;0.40;99.90;;;;;;4926743;28;20072;-82
2022/01/22 07:23:20;;;;;;;3.65;2.00;;;0.40;99.90;;;;;;4930968;28;20149;-82
2022/01/22 07:25:53;;;;;;;6.75;2.05;;;0.40;99.90;;;;;;4942038;28;20047;-64
2022/01/22 07:28:29;;;;;;;4.85;1.98;;;0.40;99.90;;;;;;4939576;28;20050;-65
2022/01/22 07:30:59;;;;;;;2.40;1.80;;;0.40;99.90;;;;;;4914958;28;20650;-65
2022/01/22 07:33:29;;;;;;;7.10;2.40;;;0.40;99.90;;;;;;4934643;28;20055;-81
2022/01/22 07:35:56;;;;;;;7.90;2.05;;;0.40;99.90;;;;;;4924197;28;20145;-63
2022/01/22 07:38:24;;;;;;;5.68;1.98;;;0.40;99.90;;;;;;4938392;28;20058;-70
2022/01/22 07:40:51;;;;;;;5.15;2.38;;;0.40;99.90;;;;;;4938757;28;20050;-69
2022/01/22 07:43:26;;;;;;;4.97;2.17;;;0.40;99.90;;;;;;4938924;28;20185;-66
2022/01/22 07:46:03;;;;;;;6.18;1.85;;;0.40;99.90;;;;;;4931020;28;20500;-67
2022/01/22 07:48:32;;;;;;;6.47;2.38;;;0.50;99.90;;;;;;4935661;28;20061;-74
2022/01/22 07:51:12;;;;;;;7.82;2.00;;;0.40;99.90;;;;;;4936940;28;20050;-64
2022/01/22 07:53:41;;;;;;;5.13;1.83;;;0.40;99.90;;;;;;4946125;28;20103;-66
2022/01/22 07:56:14;;;;;;;7.03;1.85;;;0.40;99.90;;;;;;4940603;28;20050;-67
2022/01/22 07:58:41;;;;;;;5.55;1.98;;;0.40;99.90;;;;;;4923847;28;20070;-63
2022/01/22 08:01:09;;;;;;;5.80;2.30;;;0.40;99.90;;;;;;4941344;28;21284;-84
2022/01/22 08:03:56;;;;;;;4.13;2.45;;;0.40;99.90;;;;;;4935257;28;20140;-63
2022/01/22 08:06:41;;;;;;;5.95;2.20;;;0.40;99.90;;;;;;4941677;28;20054;-83
2022/01/22 08:09:11;;;;;;;4.80;1.40;;;0.40;99.90;;;;;;4945720;28;20141;-67
2022/01/22 08:11:56;;;;;;;2.22;1.50;;;0.40;99.90;;;;;;4945491;28;20054;-73
2022/01/22 08:14:23;;;;;;;5.90;1.95;;;0.40;99.90;;;;;;4946842;28;20054;-72
2022/01/22 08:16:50;;;;;;;6.00;1.77;;;0.30;99.90;;;;;;4944275;28;20392;-73
2022/01/22 08:19:20;;;;;;;5.27;1.50;;;0.40;99.90;;;;;;4921452;28;20050;-80
2022/01/22 08:21:47;;;;;;;2.97;1.90;;;0.30;99.90;;;;;;4911539;28;20295;-76
2022/01/22 08:24:52;;;;;;;3.58;1.30;;;0.40;99.90;;;;;;4856800;28;22898;-65
2022/01/22 08:29:57;;;;;;;2.95;1.27;;;0.40;99.90;;;;;;4896014;28;20150;-77
2022/01/22 08:37:41;;;;;;;6.07;2.15;;;0.30;99.90;;;;;;4911421;28;20381;-81
2022/01/22 08:40:09;;;;;;;7.78;2.55;;;0.30;99.90;;;;;;4914548;28;20895;-81
2022/01/22 08:42:37;;;;;;;6.13;1.90;;;0.30;99.90;;;;;;4913010;28;20061;-66
2022/01/22 08:45:05;;;;;;;9.80;2.15;;;0.20;99.90;;;;;;4913889;28;22115;-64
2022/01/22 08:47:32;;;;;;;5.55;1.67;;;0.20;99.90;;;;;;4913090;28;20080;-79
2022/01/22 08:49:59;;;;;;;9.70;2.45;;;0.20;99.90;;;;;;4950784;28;20046;-65
2022/01/22 08:52:31;;;;;;;5.75;1.75;;;0.20;99.90;;;;;;4945693;28;20070;-65
2022/01/22 08:54:58;;;;;;;9.25;2.83;;;0.20;99.90;;;;;;4928468;28;20053;-69
2022/01/22 08:57:26;;;;;;;6.43;2.63;;;0.20;99.90;;;;;;4943693;28;20066;-78
2022/01/22 09:00:09;;;;;;;4.70;1.70;;;0.30;99.90;;;;;;4945372;28;20169;-65
2022/01/22 09:02:46;;;;;;;8.57;1.60;;;0.30;99.90;;;;;;4939773;28;20401;-64
2022/01/22 09:05:42;;;;;;;5.05;1.98;;;0.30;99.90;;;;;;4945585;28;21393;-64
2022/01/22 09:08:28;;;;;;;3.50;2.25;;;0.30;99.90;;;;;;4944173;28;20089;-66
2022/01/22 09:11:14;;;;;;;6.22;2.00;;;0.30;99.90;;;;;;4945272;28;20258;-75
2022/01/22 09:14:00;;;;;;;2.95;1.45;;;0.30;99.90;;;;;;4946176;28;20189;-74
2022/01/22 09:16:34;;;;;;;6.78;1.65;;;0.40;99.90;;;;;;4929040;28;22379;-63
2022/01/22 09:19:09;;;;;;;4.13;1.80;;;0.50;99.90;;;;;;4959466;28;20141;-74
2022/01/22 09:21:47;;;;;;;2.83;1.20;;;0.50;99.90;;;;;;4947072;28;20070;-66
2022/01/22 09:24:15;;;;;;;3.38;2.03;;;0.50;99.90;;;;;;4947165;28;20469;-75
2022/01/22 09:26:45;;;;;;;5.00;1.83;;;0.50;99.90;;;;;;4957215;28;20100;-80
2022/01/22 09:29:12;;;;;;;4.20;1.63;;;0.50;99.90;;;;;;4955693;28;20060;-70
2022/01/22 09:31:39;;;;;;;4.75;1.92;;;0.60;99.90;;;;;;4946422;28;21763;-66
2022/01/22 09:34:10;;;;;;;5.10;1.92;;;0.60;99.90;;;;;;4947621;28;20078;-70
2022/01/22 09:37:00;;;;;;;3.40;2.45;;;0.70;99.90;;;;;;4928410;28;20104;-70
2022/01/22 09:39:44;;;;;;;6.65;2.00;;;0.70;99.90;;;;;;4961522;28;20467;-66
2022/01/22 09:42:29;;;;;;;5.90;1.92;;;0.70;99.90;;;;;;4946332;28;20050;-64
2022/01/22 09:45:30;;;;;;;9.55;2.40;;;0.70;99.90;;;;;;4947501;28;20061;-79
2022/01/22 09:48:13;;;;;;;3.83;1.98;;;0.70;99.90;;;;;;4942763;28;20054;-68
2022/01/22 09:51:12;;;;;;;4.65;1.90;;;0.70;99.90;;;;;;4947875;28;20158;-70
2022/01/22 09:53:58;;;;;;;5.00;1.98;;;0.70;99.90;;;;;;4952053;28;20530;-63
2022/01/22 09:56:54;;;;;;;8.23;1.92;;;0.80;99.90;;;;;;4938267;28;20097;-63
2022/01/22 09:59:41;;;;;;;4.40;2.08;;;0.70;99.90;;;;;;4940160;28;20058;-79
2022/01/22 10:02:21;;;;;;;11.18;1.63;;;0.70;99.90;;;;;;4941681;28;20047;-63
2022/01/22 10:04:52;;;;;;;12.25;4.20;;;0.70;99.90;;;;;;4936565;28;20062;-68
2022/01/22 10:07:37;;;;;;;6.70;3.38;;;0.80;99.90;;;;;;4950095;28;20916;-70
2022/01/22 10:10:21;;;;;;;7.38;2.05;;;0.80;99.90;;;;;;4948792;28;20356;-73
2022/01/22 10:13:07;;;;;;;2.63;1.75;;;0.80;99.90;;;;;;4905739;28;20138;-67
2022/01/22 10:16:29;;;;;;;6.95;2.17;;;0.80;99.90;;;;;;4902772;28;20173;-66
2022/01/22 10:19:11;;;;;;;7.22;1.63;;;0.70;99.90;;;;;;4899789;28;20149;-68
2022/01/22 10:21:41;;;;;;;7.50;2.92;;;0.70;99.90;;;;;;4899535;28;20463;-67
2022/01/22 10:24:38;;;;;;;7.97;2.10;;;0.70;99.90;;;;;;4893410;28;20054;-78
2022/01/22 10:27:31;;;;;;;3.20;1.98;;;0.70;99.90;;;;;;4880830;28;20227;-64
2022/01/22 10:30:06;;;;;;;2.78;1.60;;;0.70;99.90;;;;;;4887929;28;20054;-76
2022/01/22 10:35:32;;;;;;;4.15;2.08;;;0.70;99.90;;;;;;4880009;28;20098;-76
2022/01/22 10:38:39;;;;;;;4.85;1.92;;;0.70;99.90;;;;;;4874541;28;20069;-77
2022/01/22 10:41:07;;;;;;;5.05;1.95;;;0.80;99.90;;;;;;4877752;28;20065;-75
2022/01/22 10:43:41;;;;;;;8.43;2.38;;;0.80;99.90;;;;;;4930981;28;20266;-75
2022/01/22 10:48:54;;;;;;;3.28;2.42;;;0.80;99.90;;;;;;4934650;28;20052;-77
2022/01/22 10:51:21;;;;;;;4.82;1.70;;;0.80;99.90;;;;;;4942115;28;20141;-72
2022/01/22 10:53:51;;;;;;;7.25;2.10;;;0.90;99.90;;;;;;4939874;28;20349;-78
2022/01/22 10:56:23;;;;;;;9.68;2.10;;;0.90;99.90;;;;;;4939592;28;20063;-64
2022/01/22 10:59:05;;;;;;;4.07;1.80;;;0.90;99.90;;;;;;4942912;28;24328;-73
2022/01/22 11:01:55;;;;;;;3.58;2.03;;;0.90;99.90;;;;;;4947521;28;20255;-66
2022/01/22 11:04:23;;;;;;;3.58;1.83;;;0.80;99.90;;;;;;4939439;28;20162;-67
2022/01/22 11:06:59;;;;;;;3.17;1.30;;;0.80;99.90;;;;;;4940652;28;20061;-69
2022/01/22 11:09:47;;;;;;;4.68;1.95;;;0.90;99.90;;;;;;4941775;28;20050;-66
2022/01/22 11:12:14;;;;;;;4.72;1.80;;;0.80;99.90;;;;;;4941669;28;20129;-74
2022/01/22 11:14:43;;;;;;;2.72;1.30;;;0.80;99.90;;;;;;4939751;28;20062;-67
2022/01/22 11:17:11;;;;;;;5.20;1.30;;;0.80;99.90;;;;;;4941776;28;20078;-71
2022/01/22 11:19:39;;;;;;;2.72;1.73;;;0.80;99.90;;;;;;4941499;28;20189;-75
2022/01/22 11:22:11;;;;;;;5.75;1.42;;;0.80;99.90;;;;;;4941205;28;20177;-64
2022/01/22 11:24:43;;;;;;;3.30;1.55;;;0.80;99.90;;;;;;4938891;28;20058;-77
2022/01/22 11:27:15;;;;;;;3.55;1.65;;;0.80;99.90;;;;;;4940141;28;20077;-64
2022/01/22 11:29:52;;;;;;;4.72;1.90;;;0.80;99.90;;;;;;4941767;28;20047;-63
2022/01/22 11:32:26;;;;;;;5.47;1.98;;;0.80;99.90;;;;;;4939359;28;20053;-75
2022/01/22 11:34:58;;;;;;;2.63;1.70;;;0.80;99.90;;;;;;4936232;28;20069;-70
2022/01/22 11:37:32;;;;;;;5.45;2.05;;;0.90;99.90;;;;;;4937248;28;20105;-69
2022/01/22 11:40:33;;;;;;;7.80;2.38;;;0.90;99.90;;;;;;4938683;28;20054;-68
2022/01/22 11:43:08;;;;;;;5.07;2.08;;;0.80;99.90;;;;;;4911774;28;20058;-77
2022/01/22 11:45:40;;;;;;;4.65;2.05;;;0.80;99.90;;;;;;4939360;28;20062;-70
2022/01/22 11:48:25;;;;;;;3.78;1.80;;;0.80;99.90;;;;;;4936109;28;20046;-77
2022/01/22 11:51:16;;;;;;;3.58;1.48;;;0.70;99.90;;;;;;4933277;28;20598;-73
2022/01/22 11:53:58;;;;;;;5.93;2.22;;;0.70;99.90;;;;;;4899634;28;20082;-77
2022/01/22 11:56:29;;;;;;;6.03;2.20;;;0.70;99.90;;;;;;4890666;28;20054;-79
2022/01/22 11:58:56;;;;;;;3.97;2.10;;;0.80;99.90;;;;;;4895825;28;20058;-65
2022/01/22 12:01:41;;;;;;;5.97;1.83;;;0.70;99.90;;;;;;4890866;28;20073;-65
2022/01/22 12:04:10;;;;;;;3.17;2.55;;;0.70;99.90;;;;;;4885589;28;22082;-77
2022/01/22 12:07:00;;;;;;;2.80;1.80;;;0.70;99.90;;;;;;4884837;28;21590;-72
2022/01/22 12:09:41;;;;;;;3.10;1.45;;;0.70;99.90;;;;;;4877832;28;20046;-76
2022/01/22 12:15:26;;;;;;;6.03;2.13;;;0.70;99.90;;;;;;4890248;28;20055;-78
2022/01/22 12:18:03;;;;;;;4.15;2.00;;;0.80;99.90;;;;;;4892465;28;20142;-77
2022/01/22 12:21:30;;;;;;;3.58;1.83;;;0.70;99.90;;;;;;4878843;28;20058;-77
2022/01/22 12:23:19;;;;;;;3.17;1.05;;;0.60;99.90;;;;;;4902256;28;20058;-63
2022/01/22 12:25:49;;;;;;;4.63;1.58;;;0.60;99.90;;;;;;4931740;28;20101;-63
2022/01/22 12:28:40;;;;;;;4.90;1.63;;;0.60;99.90;;;;;;4934155;28;20120;-65
2022/01/22 12:31:15;;;;;;;4.15;1.55;;;0.60;99.90;;;;;;4932683;28;20417;-71
2022/01/22 12:33:52;;;;;;;6.03;1.95;;;0.50;99.90;;;;;;4934710;28;20164;-77
2022/01/22 12:36:36;;;;;;;4.97;1.58;;;0.50;99.90;;;;;;4934958;28;20072;-64
2022/01/22 12:39:15;;;;;;;3.92;1.55;;;0.50;99.90;;;;;;4932948;28;20047;-69
2022/01/22 12:41:51;;;;;;;3.72;1.48;;;0.50;99.90;;;;;;4939766;28;20049;-68
2022/01/22 12:46:58;;;;;;;5.95;1.67;;;0.40;99.90;;;;;;4935037;28;20097;-76
2022/01/22 12:49:29;;;;;;;3.38;1.48;;;0.50;99.90;;;;;;4937634;28;20057;-65
2022/01/22 12:52:03;;;;;;;3.80;1.65;;;0.50;99.90;;;;;;4937910;28;20062;-74
2022/01/22 12:54:35;;;;;;;4.68;1.58;;;0.50;99.90;;;;;;4937409;28;20150;-66
2022/01/22 12:57:04;;;;;;;3.47;1.50;;;0.50;99.90;;;;;;4937356;28;20066;-65
2022/01/22 12:59:34;;;;;;;3.65;2.00;;;0.50;99.90;;;;;;4940639;28;20189;-66
2022/01/22 13:02:01;;;;;;;13.25;2.60;;;0.50;99.90;;;;;;4941051;28;20047;-65
2022/01/22 13:04:28;;;;;;;6.35;1.38;;;0.50;99.90;;;;;;4939914;28;20093;-75
2022/01/22 13:07:14;;;;;;;6.38;1.55;;;0.50;99.90;;;;;;4932493;28;20440;-70
2022/01/22 13:10:06;;;;;;;8.75;2.10;;;0.50;99.90;;;;;;4932851;28;20049;-65
2022/01/22 13:12:36;;;;;;;6.18;2.75;;;0.50;99.90;;;;;;4927951;28;20197;-68
2022/01/22 13:15:05;;;;;;;2.30;1.50;;;0.50;99.90;;;;;;4926758;28;20361;-67
2022/01/22 13:17:33;;;;;;;4.95;1.83;;;0.50;99.90;;;;;;4928575;28;20129;-70
2022/01/22 13:20:00;;;;;;;6.28;1.75;;;0.50;99.90;;;;;;4932407;28;20141;-70
2022/01/22 13:22:38;;;;;;;5.22;1.48;;;0.50;99.90;;;;;;4937562;28;20053;-77
2022/01/22 13:25:11;;;;;;;3.65;2.47;;;0.50;99.90;;;;;;4932103;28;20132;-64
2022/01/22 13:27:40;;;;;;;7.55;2.00;;;0.50;99.90;;;;;;4942061;28;20062;-63
2022/01/22 13:30:10;;;;;;;2.70;1.08;;;0.50;99.90;;;;;;4939924;28;20051;-71
2022/01/22 13:48:57;;;;;;;5.43;1.30;;;0.40;99.90;;;;;;4928625;28;20216;-63
2022/01/22 13:51:26;;;;;;;6.57;1.85;;;0.40;99.90;;;;;;4929073;28;20070;-67
2022/01/22 13:53:57;;;;;;;5.35;2.45;;;0.40;99.90;;;;;;4930003;28;20053;-68
2022/01/22 13:56:50;;;;;;;6.55;1.90;;;0.40;99.90;;;;;;4930583;28;20104;-75
2022/01/22 13:59:29;;;;;;;2.08;1.20;;;0.40;99.90;;;;;;4917824;28;20059;-75
2022/01/22 14:02:35;;;;;;;3.97;2.05;;;0.40;99.90;;;;;;4905844;28;20046;-75
2022/01/22 14:05:09;;;;;;;2.15;1.23;;;0.40;99.90;;;;;;4885764;28;20154;-69
2022/01/22 14:07:42;;;;;;;2.85;1.02;;;0.30;99.90;;;;;;4907628;28;20497;-64
2022/01/22 14:10:14;;;;;;;2.85;1.23;;;0.40;99.90;;;;;;4909942;28;20093;-64
2022/01/22 14:12:43;;;;;;;4.50;2.28;;;0.30;99.90;;;;;;4911914;28;20046;-69
2022/01/22 14:15:17;;;;;;;4.43;2.00;;;0.30;99.90;;;;;;4920211;28;20156;-74
2022/01/22 14:20:35;;;;;;;1.57;0.97;;;0.30;99.90;;;;;;4919162;28;20137;-67
2022/01/22 14:23:05;;;;;;;5.30;1.13;;;0.30;99.90;;;;;;4872886;28;20057;-80
2022/01/22 14:25:51;;;;;;;4.93;2.13;;;0.30;99.90;;;;;;4856932;28;20063;-78
2022/01/22 14:28:18;;;;;;;4.10;1.30;;;0.20;99.90;;;;;;4883465;28;20493;-70
2022/01/22 14:30:47;;;;;;;3.33;1.30;;;0.20;99.90;;;;;;4880188;28;20084;-69
2022/01/22 14:33:17;;;;;;;2.80;1.05;;;0.20;99.90;;;;;;4882242;28;20058;-79
2022/01/22 14:35:58;;;;;;;3.87;1.50;;;0.20;99.90;;;;;;4881206;28;20054;-69
2022/01/22 14:38:40;;;;;;;1.92;1.50;;;0.10;99.90;;;;;;4879948;28;20081;-72
2022/01/22 14:44:23;;;;;;;2.63;1.38;;;0.10;99.90;;;;;;4870734;28;20227;-74
2022/01/22 14:46:57;;;;;;;5.28;1.50;;;0.10;99.90;;;;;;4894926;28;20074;-74
2022/01/22 14:49:32;;;;;;;3.13;1.30;;;0.10;99.90;;;;;;4896348;28;20173;-68
2022/01/22 14:52:00;;;;;;;4.43;1.63;;;0.10;99.90;;;;;;4879012;28;20141;-70
2022/01/22 14:54:33;;;;;;;3.50;2.40;;;0.10;99.90;;;;;;4883476;28;20050;-77
2022/01/22 14:57:01;;;;;;;7.75;1.88;;;0.10;99.90;;;;;;4894432;28;20148;-74
2022/01/22 14:59:28;;;;;;;4.45;1.70;;;0.10;99.90;;;;;;4915688;28;20038;-78
2022/01/22 15:01:55;;;;;;;9.13;2.03;;;0.10;99.90;;;;;;4912027;28;20185;-76
2022/01/22 15:04:22;;;;;;;4.38;1.90;;;0.20;99.90;;;;;;4891853;28;20058;-67
2022/01/22 15:53:23;;;;;;;5.50;1.85;;;0.00;99.90;;;;;;4978001;27;20923;-70
2022/01/22 15:55:50;;;;;;;3.17;1.30;;;0.20;99.90;;;;;;4948234;28;20423;-71
2022/01/22 15:58:18;;;;;;;3.20;1.35;;;0.20;99.90;;;;;;4952125;28;20569;-69
2022/01/22 16:00:45;;;;;;;4.00;1.55;;;0.20;99.90;;;;;;4945051;28;20440;-72
2022/01/22 16:03:12;;;;;;;6.15;1.75;;;0.20;99.90;;;;;;4929151;28;20209;-75
2022/01/22 16:05:42;;;;;;;3.22;1.25;;;0.20;99.90;;;;;;4933936;28;20155;-68
2022/01/22 16:08:09;;;;;;;5.22;1.75;;;0.20;99.90;;;;;;4918922;28;20064;-70
2022/01/22 16:10:56;;;;;;;1.63;1.15;;;0.10;99.90;;;;;;4935677;28;20052;-71
2022/01/22 16:13:25;;;;;;;4.50;1.70;;;0.20;99.90;;;;;;4935840;28;21919;-77
2022/01/22 16:16:10;;;;;;;2.77;1.73;;;0.10;99.90;;;;;;2210875;28;10024426;-68
2022/01/22 16:18:37;;;;;;;11.00;2.10;;;0.10;99.90;;;;;;3598010;28;10001177;-77
2022/01/22 16:21:04;;;;;;;5.90;1.63;;;0.10;99.90;;;;;;4969780;28;20057;-68
2022/01/22 16:23:31;;;;;;;3.72;1.70;;;0.10;99.90;;;;;;4973640;28;20049;-73